createdAt,value
2023-03-31T00:01:24.394Z,46.45
2023-03-31T00:04:05.105Z,46.79
2023-03-31T00:06:38.702Z,47.09
2023-03-31T00:09:19.112Z,47.52
2023-03-31T00:11:47.268Z,47.76
2023-03-31T00:14:18.044Z,48.30
2023-03-31T00:16:46.942Z,48.77
2023-03-31T00:19:18.700Z,49.34
2023-03-31T00:21:47.974Z,49.95
2023-03-31T00:24:16.557Z,50.32
2023-03-31T00:26:45.180Z,50.53
2023-03-31T00:29:13.720Z,51.15
2023-03-31T00:31:41.871Z,51.61
2023-03-31T00:34:10.031Z,52.15
2023-03-31T00:36:46.006Z,52.39
2023-03-31T00:39:16.961Z,52.91
2023-03-31T00:41:45.460Z,53.87
2023-03-31T00:44:23.162Z,54.29
2023-03-31T00:46:53.249Z,54.92
2023-03-31T00:49:21.473Z,55.51
2023-03-31T00:51:50.191Z,56.42
2023-03-31T00:54:19.722Z,56.87
2023-03-31T00:56:53.520Z,56.95
2023-03-31T00:59:22.223Z,57.51
2023-03-31T01:01:50.741Z,58.38
2023-03-31T01:04:22.917Z,59.02
2023-03-31T01:06:57.539Z,59.32
2023-03-31T01:09:25.860Z,60.14
2023-03-31T01:11:54.090Z,60.67
2023-03-31T01:14:22.195Z,60.99
2023-03-31T01:16:53.803Z,61.89
2023-03-31T01:19:48.204Z,62.09
2023-03-31T01:22:22.699Z,62.73
2023-03-31T01:25:09.656Z,63.03
2023-03-31T01:27:39.868Z,63.32
2023-03-31T01:30:16.943Z,63.81
2023-03-31T01:33:09.434Z,64.18
2023-03-31T01:35:47.975Z,64.18
2023-03-31T01:38:34.786Z,64.53
2023-03-31T01:41:08.738Z,64.89
2023-03-31T01:43:40.334Z,65.42
2023-03-31T01:46:11.639Z,66.26
2023-03-31T01:48:42.769Z,67.54
2023-03-31T01:51:16.321Z,68.21
2023-03-31T01:54:04.761Z,69.04
2023-03-31T01:56:41.356Z,70.06
2023-03-31T01:59:12.445Z,70.82
2023-03-31T02:02:01.764Z,71.92
2023-03-31T02:04:32.749Z,72.73
2023-03-31T02:07:04.620Z,73.23
2023-03-31T02:09:34.531Z,74.24
2023-03-31T02:12:04.512Z,75.14
2023-03-31T02:14:37.422Z,76.01
2023-03-31T02:17:30.534Z,76.94
2023-03-31T02:20:08.420Z,77.39
2023-03-31T02:22:37.791Z,77.59
2023-03-31T02:25:06.547Z,78.21
2023-03-31T02:27:35.992Z,78.46
2023-03-31T02:30:04.419Z,78.50
2023-03-31T02:32:43.550Z,78.85
2023-03-31T02:35:22.270Z,79.62
2023-03-31T02:37:50.439Z,79.91
2023-03-31T02:40:19.702Z,80.45
2023-03-31T02:42:48.645Z,80.65
2023-03-31T02:45:39.620Z,81.01
2023-03-31T02:48:10.891Z,81.09
2023-03-31T02:50:46.414Z,81.53
2023-03-31T02:53:24.232Z,81.82
2023-03-31T02:56:01.256Z,81.70
2023-03-31T02:58:34.786Z,81.32
2023-03-31T03:01:03.416Z,80.68
2023-03-31T03:03:42.317Z,80.35
2023-03-31T03:06:27.964Z,78.98
2023-03-31T03:09:19.536Z,77.66
2023-03-31T03:12:06.869Z,76.80
2023-03-31T03:14:36.566Z,76.20
2023-03-31T03:17:07.216Z,76.05
2023-03-31T03:19:35.703Z,76.07
2023-03-31T03:22:03.818Z,75.99
2023-03-31T03:24:34.606Z,76.23
2023-03-31T03:27:08.910Z,76.40
2023-03-31T03:29:37.139Z,76.51
2023-03-31T03:32:05.667Z,76.54
2023-03-31T03:34:34.415Z,76.36
2023-03-31T03:37:02.692Z,76.46
2023-03-31T03:39:30.900Z,76.39
2023-03-31T03:41:59.414Z,76.51
2023-03-31T03:44:27.891Z,76.59
2023-03-31T03:46:56.343Z,76.49
2023-03-31T03:49:24.966Z,76.41
2023-03-31T03:51:53.984Z,76.59
2023-03-31T03:54:22.208Z,76.66
2023-03-31T03:56:50.682Z,76.75
2023-03-31T03:59:18.874Z,76.56
2023-03-31T04:01:47.533Z,76.24
2023-03-31T04:04:17.088Z,76.12
2023-03-31T04:06:46.419Z,75.86
2023-03-31T04:09:14.793Z,75.88
2023-03-31T04:11:43.575Z,75.56
2023-03-31T04:14:11.790Z,75.35
2023-03-31T04:16:47.072Z,75.31
2023-03-31T04:19:17.779Z,75.41
2023-03-31T04:21:46.216Z,75.69
2023-03-31T04:24:22.208Z,75.85
2023-03-31T04:26:51.220Z,76.71
2023-03-31T04:29:22.716Z,77.32
2023-03-31T04:31:52.852Z,77.88
2023-03-31T04:34:27.019Z,78.30
2023-03-31T04:36:56.611Z,78.40
2023-03-31T04:39:27.133Z,78.39
2023-03-31T04:41:57.548Z,78.57
2023-03-31T04:44:26.351Z,78.18
2023-03-31T04:46:54.945Z,77.96
2023-03-31T04:49:25.335Z,77.80
2023-03-31T04:51:53.771Z,77.62
2023-03-31T04:54:25.785Z,77.59
2023-03-31T04:56:54.939Z,77.42
2023-03-31T04:59:23.240Z,77.33
2023-03-31T05:01:51.460Z,77.17
2023-03-31T05:04:21.015Z,77.06
2023-03-31T05:06:49.117Z,77.22
2023-03-31T05:09:17.604Z,77.30
2023-03-31T05:11:45.822Z,77.28
2023-03-31T05:14:14.357Z,77.32
2023-03-31T05:16:43.572Z,76.91
2023-03-31T05:19:11.802Z,76.51
2023-03-31T05:21:39.910Z,76.19
2023-03-31T05:24:08.321Z,75.70
2023-03-31T05:26:36.633Z,75.47
2023-03-31T05:29:05.760Z,75.17
2023-03-31T05:31:34.147Z,75.13
2023-03-31T05:34:02.443Z,74.55
2023-03-31T05:36:32.567Z,74.06
2023-03-31T05:39:01.447Z,73.40
2023-03-31T05:41:30.501Z,72.90
2023-03-31T05:43:58.688Z,72.22
2023-03-31T05:46:27.567Z,71.55
2023-03-31T05:48:56.735Z,70.79
2023-03-31T05:51:25.448Z,70.08
2023-03-31T05:53:53.800Z,68.74
2023-03-31T05:56:22.462Z,67.65
2023-03-31T05:58:50.768Z,66.79
2023-03-31T06:01:20.238Z,65.26
2023-03-31T06:03:50.258Z,63.94
2023-03-31T06:06:18.743Z,62.33
2023-03-31T06:08:48.036Z,61.20
2023-03-31T06:11:17.322Z,60.49
2023-03-31T06:13:45.880Z,59.62
2023-03-31T06:16:17.583Z,59.14
2023-03-31T06:18:48.039Z,59.75
2023-03-31T06:21:16.967Z,60.29
2023-03-31T06:23:46.682Z,60.32
2023-03-31T06:26:15.900Z,59.50
2023-03-31T06:28:46.975Z,59.38
2023-03-31T06:31:16.265Z,59.36
2023-03-31T06:33:44.567Z,58.82
2023-03-31T06:36:13.422Z,58.86
2023-03-31T06:38:42.088Z,59.24
2023-03-31T06:41:12.082Z,59.87
2023-03-31T06:43:41.255Z,61.20
2023-03-31T06:46:10.773Z,61.88
2023-03-31T06:48:39.684Z,62.63
2023-03-31T06:51:08.981Z,63.55
2023-03-31T06:53:37.711Z,63.91
2023-03-31T06:56:07.734Z,63.84
2023-03-31T06:58:36.890Z,63.75
2023-03-31T07:01:06.270Z,63.35
2023-03-31T07:03:37.704Z,62.57
2023-03-31T07:06:06.300Z,61.97
2023-03-31T07:08:34.707Z,60.01
2023-03-31T07:11:03.040Z,59.31
2023-03-31T07:13:32.830Z,59.24
2023-03-31T07:16:01.356Z,60.32
2023-03-31T07:18:34.793Z,62.07
2023-03-31T07:21:05.777Z,63.94
2023-03-31T07:23:36.191Z,64.48
2023-03-31T07:26:06.560Z,64.40
2023-03-31T07:28:36.753Z,64.68
2023-03-31T07:31:10.709Z,65.67
2023-03-31T07:33:39.546Z,66.46
2023-03-31T07:36:12.540Z,66.47
2023-03-31T07:38:47.067Z,66.33
2023-03-31T07:41:19.485Z,66.54
2023-03-31T07:43:47.687Z,66.66
2023-03-31T07:46:16.792Z,66.87
2023-03-31T07:48:46.734Z,67.15
2023-03-31T07:51:17.129Z,67.81
2023-03-31T07:53:45.850Z,68.30
2023-03-31T07:56:19.919Z,68.73
2023-03-31T07:58:48.339Z,69.52
2023-03-31T08:01:17.306Z,70.12
2023-03-31T08:03:46.891Z,70.77
2023-03-31T08:06:19.509Z,71.45
2023-03-31T08:08:48.437Z,72.05
2023-03-31T08:11:18.164Z,71.71
2023-03-31T08:13:46.412Z,71.00
2023-03-31T08:16:14.927Z,72.04
2023-03-31T08:18:43.447Z,72.67
2023-03-31T08:21:12.476Z,73.34
2023-03-31T08:23:40.879Z,74.36
2023-03-31T08:26:18.324Z,75.24
2023-03-31T08:28:49.410Z,75.65
2023-03-31T08:31:19.040Z,75.70
2023-03-31T08:33:47.258Z,75.45
2023-03-31T08:36:15.959Z,75.53
2023-03-31T08:38:48.205Z,75.75
2023-03-31T08:41:16.446Z,75.74
2023-03-31T08:43:46.019Z,75.41
2023-03-31T08:46:18.029Z,75.89
2023-03-31T08:48:56.224Z,76.55
2023-03-31T08:51:26.045Z,76.88
2023-03-31T08:53:57.216Z,76.94
2023-03-31T08:56:26.248Z,77.62
2023-03-31T08:58:55.728Z,78.35
2023-03-31T09:01:44.394Z,78.49
2023-03-31T09:04:33.195Z,78.82
2023-03-31T09:07:14.149Z,78.80
2023-03-31T09:09:53.692Z,77.67
2023-03-31T09:12:35.584Z,76.64
2023-03-31T09:15:09.399Z,77.01
2023-03-31T09:17:39.399Z,77.30
2023-03-31T09:20:16.183Z,77.56
2023-03-31T09:22:48.591Z,77.61
2023-03-31T09:25:21.063Z,76.95
2023-03-31T09:27:50.967Z,76.80
2023-03-31T09:30:21.154Z,77.12
2023-03-31T09:32:53.499Z,77.33
2023-03-31T09:35:26.002Z,76.47
2023-03-31T09:37:54.477Z,76.88
2023-03-31T09:40:23.792Z,77.95
2023-03-31T09:42:55.261Z,78.38
2023-03-31T09:45:23.639Z,78.18
2023-03-31T09:47:52.716Z,78.19
2023-03-31T09:50:25.198Z,77.96
2023-03-31T09:52:56.476Z,78.07
2023-03-31T09:55:39.191Z,78.26
2023-03-31T09:58:08.438Z,77.29
2023-03-31T10:00:37.568Z,76.12
2023-03-31T10:03:09.221Z,76.37
2023-03-31T10:05:38.401Z,76.60
2023-03-31T10:08:25.915Z,75.96
2023-03-31T10:10:54.908Z,76.30
2023-03-31T10:13:25.323Z,76.87
2023-03-31T10:15:54.691Z,78.39
2023-03-31T10:18:26.490Z,78.92
2023-03-31T10:20:58.134Z,78.74
2023-03-31T10:23:30.614Z,79.01
2023-03-31T10:25:59.125Z,78.96
2023-03-31T10:28:27.521Z,79.42
2023-03-31T10:30:56.505Z,79.90
2023-03-31T10:33:25.716Z,79.82
2023-03-31T10:36:08.406Z,79.12
2023-03-31T10:38:38.074Z,78.91
2023-03-31T10:41:07.998Z,78.84
2023-03-31T10:43:37.996Z,77.14
2023-03-31T10:46:06.392Z,76.94
2023-03-31T10:48:36.226Z,76.60
2023-03-31T10:51:14.838Z,77.08
2023-03-31T10:53:47.328Z,77.43
2023-03-31T10:56:16.380Z,77.49
2023-03-31T10:59:05.418Z,77.68
2023-03-31T11:01:34.970Z,77.61
2023-03-31T11:04:09.986Z,77.89
2023-03-31T11:06:56.188Z,78.16
2023-03-31T11:09:27.674Z,78.18
2023-03-31T11:12:01.825Z,78.82
2023-03-31T11:14:41.838Z,78.56
2023-03-31T11:17:14.395Z,77.81
2023-03-31T11:19:50.664Z,78.39
2023-03-31T11:22:32.184Z,78.30
2023-03-31T11:25:19.216Z,79.00
2023-03-31T11:27:53.789Z,80.03
2023-03-31T11:30:26.746Z,79.35
2023-03-31T11:32:57.483Z,79.51
2023-03-31T11:35:39.038Z,79.55
2023-03-31T11:38:11.829Z,80.18
2023-03-31T11:40:51.116Z,80.79
2023-03-31T11:43:39.159Z,80.78
2023-03-31T11:46:07.795Z,80.03
2023-03-31T11:48:38.809Z,79.58
2023-03-31T11:51:08.093Z,78.42
2023-03-31T11:53:37.156Z,75.84
2023-03-31T11:56:07.797Z,74.95
2023-03-31T11:58:39.436Z,73.80
2023-03-31T12:01:11.119Z,73.47
2023-03-31T12:03:39.355Z,72.75
2023-03-31T12:06:12.881Z,71.51
2023-03-31T12:08:53.770Z,71.27
2023-03-31T12:11:22.013Z,70.73
2023-03-31T12:13:56.551Z,71.47
2023-03-31T12:16:46.107Z,71.70
2023-03-31T12:19:17.395Z,71.80
2023-03-31T12:21:48.500Z,71.35
2023-03-31T12:24:16.930Z,72.23
2023-03-31T12:26:51.013Z,72.47
2023-03-31T12:29:19.151Z,72.13
2023-03-31T12:31:47.420Z,72.56
2023-03-31T12:34:16.776Z,72.54
2023-03-31T12:36:53.503Z,72.78
2023-03-31T12:39:25.541Z,72.77
2023-03-31T12:42:19.627Z,72.77
2023-03-31T12:45:06.853Z,72.40
2023-03-31T12:47:38.754Z,71.61
2023-03-31T12:50:16.496Z,69.78
2023-03-31T12:52:44.813Z,69.19
2023-03-31T12:55:22.163Z,68.41
2023-03-31T12:57:50.616Z,67.98
2023-03-31T13:00:21.227Z,67.34
2023-03-31T13:02:49.693Z,67.65
2023-03-31T13:05:36.721Z,67.81
2023-03-31T13:08:05.954Z,68.33
2023-03-31T13:10:34.500Z,68.84
2023-03-31T13:13:20.953Z,68.92
2023-03-31T13:15:56.163Z,70.03
2023-03-31T13:18:25.283Z,71.30
2023-03-31T13:21:01.061Z,72.91
2023-03-31T13:23:31.420Z,74.39
2023-03-31T13:25:59.723Z,75.86
2023-03-31T13:28:32.103Z,77.32
2023-03-31T13:31:03.921Z,78.68
2023-03-31T13:33:40.440Z,79.51
2023-03-31T13:36:18.128Z,80.25
2023-03-31T13:39:04.426Z,80.95
2023-03-31T13:41:33.019Z,81.59
2023-03-31T13:44:19.608Z,81.97
2023-03-31T13:46:59.828Z,81.63
2023-03-31T13:49:37.578Z,81.25
2023-03-31T13:52:10.167Z,81.41
2023-03-31T13:54:44.827Z,81.20
2023-03-31T13:57:32.433Z,80.46
2023-03-31T14:00:19.957Z,79.64
2023-03-31T14:03:02.394Z,77.61
2023-03-31T14:05:34.034Z,76.74
2023-03-31T14:08:04.075Z,77.03
2023-03-31T14:10:34.476Z,77.16
2023-03-31T14:13:12.090Z,77.48
2023-03-31T14:15:50.408Z,77.17
2023-03-31T14:18:36.263Z,76.51
2023-03-31T14:21:08.413Z,75.37
2023-03-31T14:23:37.455Z,75.32
2023-03-31T14:26:07.978Z,75.51
2023-03-31T14:28:37.621Z,76.19
2023-03-31T14:31:05.862Z,77.11
2023-03-31T14:33:34.683Z,77.79
2023-03-31T14:36:08.422Z,77.97
2023-03-31T14:38:37.933Z,77.99
2023-03-31T14:41:06.112Z,78.26
2023-03-31T14:43:35.369Z,78.75
2023-03-31T14:46:05.218Z,79.16
2023-03-31T14:48:34.383Z,79.30
2023-03-31T14:51:03.366Z,79.42
2023-03-31T14:53:33.203Z,79.79
2023-03-31T14:56:03.472Z,80.23
2023-03-31T14:58:35.064Z,81.09
2023-03-31T15:01:03.925Z,82.13
2023-03-31T15:03:33.446Z,83.08
2023-03-31T15:06:01.639Z,83.97
2023-03-31T15:08:30.693Z,84.70
2023-03-31T15:11:11.943Z,85.40
2023-03-31T15:13:46.880Z,86.76
2023-03-31T15:16:33.114Z,88.02
2023-03-31T15:19:05.026Z,89.27
2023-03-31T15:21:34.608Z,90.28
2023-03-31T15:24:03.611Z,91.28
2023-03-31T15:26:40.422Z,91.87
2023-03-31T15:29:31.461Z,92.76
2023-03-31T15:31:59.842Z,93.58
2023-03-31T15:34:33.501Z,94.60
2023-03-31T15:37:04.071Z,95.67
2023-03-31T15:39:32.751Z,96.59
2023-03-31T15:42:04.189Z,97.48
2023-03-31T15:44:46.410Z,98.50
2023-03-31T15:47:26.272Z,99.91
2023-03-31T15:49:55.837Z,100.00
2023-03-31T15:52:28.660Z,100.00
2023-03-31T15:54:57.227Z,100.00
2023-03-31T15:57:31.503Z,100.00
2023-03-31T16:00:02.358Z,100.00
2023-03-31T16:02:39.591Z,100.00
2023-03-31T16:07:57.203Z,100.00
2023-03-31T16:10:25.756Z,100.00
2023-03-31T16:12:57.998Z,100.00
2023-03-31T16:15:30.581Z,100.00
2023-03-31T16:18:00.190Z,100.00
2023-03-31T16:20:32.983Z,100.00
2023-03-31T16:23:02.057Z,100.00
2023-03-31T16:25:30.998Z,100.00
2023-03-31T16:28:00.250Z,100.00
2023-03-31T16:30:38.309Z,100.00
2023-03-31T16:33:07.940Z,100.00
2023-03-31T16:35:40.159Z,100.00
2023-03-31T16:38:09.045Z,100.00
2023-03-31T16:40:39.217Z,100.00
2023-03-31T16:43:20.484Z,100.00
2023-03-31T16:45:50.351Z,100.00
2023-03-31T16:48:19.855Z,100.00
2023-03-31T16:50:51.494Z,100.00
2023-03-31T16:53:23.324Z,100.00
2023-03-31T16:55:51.954Z,100.00
2023-03-31T16:58:21.450Z,100.00
2023-03-31T17:00:49.879Z,100.00
2023-03-31T17:03:20.794Z,100.00
2023-03-31T17:05:51.637Z,100.00
2023-03-31T17:08:20.916Z,100.00
2023-03-31T17:11:15.340Z,100.00
2023-03-31T17:13:44.747Z,100.00
2023-03-31T17:16:22.182Z,100.00
2023-03-31T17:18:58.774Z,100.00
2023-03-31T17:21:27.354Z,100.00
2023-03-31T17:23:55.982Z,100.00
2023-03-31T17:26:24.261Z,100.00
2023-03-31T17:28:52.825Z,100.00
2023-03-31T17:31:21.650Z,100.00
2023-03-31T17:33:50.041Z,100.00
2023-03-31T17:36:19.615Z,100.00
2023-03-31T17:38:48.221Z,100.00
2023-03-31T17:41:18.065Z,100.00
2023-03-31T17:43:49.117Z,100.00
2023-03-31T17:46:18.083Z,100.00
2023-03-31T17:48:48.653Z,100.00
2023-03-31T17:51:17.959Z,100.00
2023-03-31T17:53:49.088Z,100.00
2023-03-31T17:56:17.665Z,100.00
2023-03-31T17:58:46.485Z,100.00
2023-03-31T18:01:15.720Z,100.00
2023-03-31T18:03:46.387Z,100.00
2023-03-31T18:06:19.364Z,100.00
2023-03-31T18:08:48.123Z,100.00
2023-03-31T18:11:17.369Z,100.00
2023-03-31T18:13:47.687Z,100.00
2023-03-31T18:16:16.029Z,100.00
2023-03-31T18:18:44.223Z,100.00
2023-03-31T18:21:15.775Z,100.00
2023-03-31T18:23:44.856Z,100.00
2023-03-31T18:26:13.538Z,100.00
2023-03-31T18:28:43.466Z,100.00
2023-03-31T18:31:12.572Z,100.00
2023-03-31T18:33:41.959Z,100.00
2023-03-31T18:36:14.099Z,100.00
2023-03-31T18:38:43.741Z,100.00
2023-03-31T18:41:12.932Z,100.00
2023-03-31T18:43:44.735Z,100.00
2023-03-31T18:46:13.951Z,100.00
2023-03-31T18:48:42.386Z,100.00
2023-03-31T18:51:11.140Z,100.00
2023-03-31T18:53:41.709Z,100.00
2023-03-31T18:56:10.111Z,100.00
2023-03-31T18:58:39.749Z,100.00
2023-03-31T19:01:08.036Z,100.00
2023-03-31T19:03:39.252Z,100.00
2023-03-31T19:06:10.342Z,100.00
2023-03-31T19:08:38.888Z,100.00
2023-03-31T19:11:08.640Z,100.00
2023-03-31T19:13:39.110Z,100.00
2023-03-31T19:16:27.647Z,100.00
2023-03-31T19:18:56.044Z,100.00
2023-03-31T19:21:27.221Z,100.00
2023-03-31T19:23:55.640Z,100.00
2023-03-31T19:26:28.374Z,100.00
2023-03-31T19:28:59.180Z,100.00
2023-03-31T19:31:38.473Z,100.00
2023-03-31T19:34:11.849Z,100.00
2023-03-31T19:36:40.977Z,100.00
2023-03-31T19:39:09.593Z,100.00
2023-03-31T19:41:38.956Z,100.00
2023-03-31T19:44:07.264Z,100.00
2023-03-31T19:46:36.306Z,100.00
2023-03-31T19:49:04.903Z,100.00
2023-03-31T19:51:34.535Z,100.00
2023-03-31T19:54:02.814Z,100.00
2023-03-31T19:56:32.802Z,100.00
2023-03-31T19:59:01.556Z,100.00
2023-03-31T20:01:29.979Z,100.00
2023-03-31T20:03:59.575Z,100.00
2023-03-31T20:06:29.135Z,100.00
2023-03-31T20:08:58.292Z,100.00
2023-03-31T20:11:27.840Z,100.00
2023-03-31T20:13:57.427Z,100.00
2023-03-31T20:16:26.421Z,100.00
2023-03-31T20:18:56.794Z,100.00
2023-03-31T20:21:26.407Z,100.00
2023-03-31T20:23:57.423Z,100.00
2023-03-31T20:26:29.952Z,100.00
2023-03-31T20:28:58.370Z,100.00
2023-03-31T20:31:27.662Z,100.00
2023-03-31T20:33:56.460Z,100.00
2023-03-31T20:36:25.554Z,100.00
2023-03-31T20:38:54.348Z,100.00
2023-03-31T20:41:24.567Z,100.00
2023-03-31T20:43:53.900Z,100.00
2023-03-31T20:46:22.500Z,100.00
2023-03-31T20:48:53.429Z,100.00
2023-03-31T20:51:22.612Z,100.00
2023-03-31T20:53:53.184Z,100.00
2023-03-31T20:56:31.891Z,100.00
2023-03-31T20:59:00.728Z,100.00
2023-03-31T21:01:31.194Z,100.00
2023-03-31T21:04:02.162Z,100.00
2023-03-31T21:06:32.755Z,100.00
2023-03-31T21:09:01.246Z,100.00
2023-03-31T21:11:31.234Z,100.00
2023-03-31T21:13:59.722Z,100.00
2023-03-31T21:16:28.519Z,100.00
2023-03-31T21:18:59.956Z,100.00
2023-03-31T21:21:29.203Z,100.00
2023-03-31T21:23:58.398Z,100.00
2023-03-31T21:26:26.673Z,100.00
2023-03-31T21:28:59.390Z,100.00
2023-03-31T21:31:28.002Z,100.00
2023-03-31T21:33:59.008Z,100.00
2023-03-31T21:36:28.138Z,100.00
2023-03-31T21:38:57.526Z,100.00
2023-03-31T21:41:27.487Z,100.00
2023-03-31T21:43:56.661Z,100.00
2023-03-31T21:46:26.904Z,100.00
2023-03-31T21:48:55.381Z,100.00
2023-03-31T21:51:23.752Z,100.00
2023-03-31T21:53:55.399Z,100.00
2023-03-31T21:56:24.550Z,100.00
2023-03-31T21:58:53.411Z,100.00
2023-03-31T22:01:22.606Z,100.00
2023-03-31T22:03:52.181Z,100.00
2023-03-31T22:06:21.646Z,100.00
2023-03-31T22:08:49.897Z,100.00
2023-03-31T22:11:24.720Z,100.00
2023-03-31T22:13:53.626Z,100.00
2023-03-31T22:16:22.397Z,100.00
2023-03-31T22:18:52.780Z,100.00
2023-03-31T22:21:22.386Z,100.00
2023-03-31T22:23:51.353Z,100.00
2023-03-31T22:26:20.228Z,100.00
2023-03-31T22:28:48.535Z,100.00
2023-03-31T22:31:17.580Z,100.00
2023-03-31T22:33:46.620Z,100.00
2023-03-31T22:36:14.777Z,100.00
2023-03-31T22:38:43.261Z,100.00
2023-03-31T22:41:11.891Z,100.00
2023-03-31T22:43:40.052Z,100.00
2023-03-31T22:46:08.641Z,100.00
2023-03-31T22:48:37.014Z,100.00
2023-03-31T22:51:09.091Z,100.00
2023-03-31T22:53:37.697Z,100.00
2023-03-31T22:56:06.517Z,100.00
2023-03-31T22:58:34.762Z,100.00
2023-03-31T23:01:03.403Z,100.00
2023-03-31T23:03:33.038Z,100.00
2023-03-31T23:06:05.449Z,100.00
2023-03-31T23:08:37.054Z,100.00
2023-03-31T23:11:06.396Z,100.00
2023-03-31T23:13:38.136Z,100.00
2023-03-31T23:16:06.930Z,100.00
2023-03-31T23:18:36.010Z,100.00
2023-03-31T23:21:05.867Z,100.00
2023-03-31T23:23:34.071Z,100.00
2023-03-31T23:26:02.772Z,100.00
2023-03-31T23:28:31.781Z,100.00
2023-03-31T23:30:59.914Z,100.00
2023-03-31T23:33:29.129Z,100.00
2023-03-31T23:36:05.261Z,100.00
2023-03-31T23:38:34.326Z,100.00
2023-03-31T23:41:03.734Z,100.00
2023-03-31T23:43:32.169Z,100.00
2023-03-31T23:46:03.372Z,100.00
2023-03-31T23:48:32.611Z,100.00
2023-03-31T23:51:00.889Z,100.00
2023-03-31T23:53:29.493Z,100.00
2023-03-31T23:56:03.700Z,100.00
2023-03-31T23:58:32.402Z,100.00
